Latest Weather Observations for Nullarbor

IDS60801

Issued at 2:41 pm CST Monday 23 September 2019 (issued every 10 minutes, with the page automatically refreshed every 10 minutes)

About weather observations | Map of weather stations | Latest weather observations for SA | Other Formats
Station Details ID: 018106 Name: NULLARBOR Lat: -31.45 Lon: 130.90 Height: 64.0 m
Data from the previous 72 hours. | See also: Recent months at Nullarbor
Date/Time
CST
Temp
°C
App
Temp
°C
Dew
Point
°C
Rel
Hum
%
Delta-T
°C
Wind Press
QNH
hPa
Press
MSL
hPa
Rain since
9am
mm
Dir  Spd
km/h
Gust
km/h
Spd
kts
Gust
kts
23/02:30pm 16.6 12.3 7.0 53 4.7 SSE 19 26 10 14 1031.7 1031.7 0.0
23/02:00pm 16.7 12.8 7.1 53 4.8 SSE 17 32 9 17 1032.1 1032.1 0.0
23/01:30pm 16.4 12.1 7.1 54 4.6 SE 19 28 10 15 1032.1 1032.1 0.0
23/01:00pm 16.9 12.7 7.5 54 4.7 SSE 19 28 10 15 1032.4 1032.4 0.0
23/12:30pm 17.2 13.4 7.5 53 4.8 S 17 26 9 14 1032.3 1032.3 0.0
23/12:00pm 17.0 12.7 6.8 51 5.0 S 19 28 10 15 1032.6 1032.6 0.0
23/11:30am 16.7 12.7 6.8 52 4.9 S 17 24 9 13 1033.0 1033.0 0.0
23/11:00am 15.9 12.2 7.9 59 4.0 S 17 20 9 11 1033.3 1033.3 0.0
23/10:30am 16.5 13.6 8.0 57 4.3 SE 13 17 7 9 1033.4 1033.4 0.0
23/10:00am 14.1 10.9 8.3 68 2.9 SSW 15 19 8 10 1033.4 1033.4 0.0
23/09:30am 13.8 11.8 8.6 71 2.6 SSE 9 17 5 9 1033.3 1033.3 0.0
23/09:00am 11.7 10.1 8.9 83 1.4 SSW 7 11 4 6 1033.4 1033.4 0.0
23/08:30am 9.5 8.3 9.4 99 0.0 WNW 6 7 3 4 1033.4 1033.4 0.0
23/08:00am 6.9 4.9 6.9 100 0.0 WNW 7 11 4 6 1033.3 1033.3 0.0
23/07:30am 3.6 0.1 3.5 99 0.0 NW 11 13 6 7 1033.2 1033.2 0.0
23/07:00am 2.1 -2.0 2.0 99 0.0 NW 13 15 7 8 1033.0 1033.0 0.0
23/06:30am 1.7 -2.5 1.6 99 0.0 NW 13 15 7 8 1032.6 1032.6 0.0
23/06:00am 1.8 -2.4 1.7 99 0.0 NW 13 15 7 8 1032.4 1032.4 0.0
23/05:30am 1.8 -2.0 1.7 99 0.0 NW 11 15 6 8 1031.9 1031.9 0.0
23/05:00am 2.7 -1.0 2.6 99 0.0 NW 11 13 6 7 1031.7 1031.7 0.0
23/04:30am 3.1 0.8 2.8 98 0.1 WNW 4 7 2 4 1031.5 1031.5 0.0
23/04:00am 6.4 3.4 6.1 98 0.1 S 11 13 6 7 1031.3 1031.3 0.0
23/03:30am 6.1 3.4 5.4 95 0.3 SW 9 11 5 6 1031.2 1031.2 0.0
23/03:00am 6.7 3.4 6.4 98 0.1 SSW 13 15 7 8 1031.2 1031.2 0.0
23/02:30am 5.0 2.3 3.7 91 0.5 SW 7 11 4 6 1031.5 1031.5 0.0
23/02:00am 7.2 4.3 6.3 94 0.4 SW 11 13 6 7 1031.7 1031.7 0.0
23/01:30am 7.3 4.4 6.6 95 0.3 SSW 11 15 6 8 1031.7 1031.7 0.0
23/01:00am 7.3 4.0 6.4 94 0.4 S 13 15 7 8 1031.8 1031.8 0.0
23/12:30am 7.8 4.6 6.7 93 0.5 S 13 15 7 8 1031.8 1031.8 0.0
23/12:00am 8.2 5.1 7.3 94 0.4 SSW 13 15 7 8 1032.0 1032.0 0.0
 
Date/Time
CST
Temp
°C
App
Temp
°C
Dew
Point
°C
Rel
Hum
%
Delta-T
°C
Wind Press
QNH
hPa
Press
MSL
hPa
Rain since
9am
mm
Dir  Spd
km/h
Gust
km/h
Spd
kts
Gust
kts
22/11:30pm 8.1 4.2 6.9 92 0.6 SSW 17 17 9 9 1032.0 1032.0 0.0
22/11:00pm 7.6 3.5 6.4 92 0.5 SSW 17 19 9 10 1032.0 1032.0 0.0
22/10:30pm 8.2 4.9 6.3 88 0.9 SSW 13 15 7 8 1031.9 1031.9 0.0
22/10:00pm 9.0 5.8 6.8 86 1.0 SSW 13 15 7 8 1031.9 1031.9 0.0
22/09:30pm 9.9 6.5 7.5 85 1.1 SSW 15 17 8 9 1031.7 1031.7 0.0
22/09:00pm 10.0 6.9 7.3 83 1.3 SSW 13 13 7 7 1031.6 1031.6 0.0
22/08:30pm 10.6 8.0 7.8 83 1.3 SSW 11 13 6 7 1031.4 1031.4 0.0
22/08:00pm 9.9 6.6 6.6 80 1.5 SSW 13 13 7 7 1031.0 1031.0 0.0
22/07:30pm 11.2 7.8 7.5 78 1.8 SSW 15 15 8 8 1030.6 1030.6 0.0
22/07:00pm 12.4 9.1 7.9 74 2.2 SSW 15 20 8 11 1030.3 1030.3 0.0
22/06:30pm 13.4 9.5 8.5 72 2.4 SSW 19 26 10 14 1030.0 1030.0 0.0
22/06:00pm 14.2 8.6 8.8 70 2.7 SSW 28 37 15 20 1029.6 1029.6 0.0
22/05:30pm 14.9 8.5 8.4 65 3.3 SSW 32 39 17 21 1029.2 1029.2 0.0
22/05:00pm 15.7 8.7 6.7 55 4.4 SSW 33 43 18 23 1028.9 1028.8 0.0
22/04:30pm 16.2 9.2 6.9 54 4.6 SSW 33 44 18 24 1028.7 1028.6 0.0
22/04:00pm 17.1 10.0 5.4 46 5.6 SW 32 43 17 23 1028.5 1028.4 0.0
22/03:30pm 17.2 10.2 7.0 51 5.1 SW 33 43 18 23 1028.6 1028.5 0.0
22/03:00pm 16.7 9.8 7.1 53 4.8 SW 33 44 18 24 1028.6 1028.5 0.0
22/02:30pm 17.0 10.4 7.9 55 4.6 SW 32 44 17 24 1028.7 1028.6 0.0
22/02:00pm 16.4 10.2 6.2 51 5.0 WSW 28 41 15 22 1028.8 1028.7 0.0
22/01:30pm 17.4 12.3 6.0 47 5.5 WSW 22 39 12 21 1029.0 1028.9 0.0
22/01:00pm 17.3 11.9 6.5 49 5.3 SW 24 37 13 20 1029.2 1029.2 0.0
22/12:30pm 16.2 10.6 5.5 49 5.1 WSW 24 33 13 18 1029.5 1029.5 0.0
22/12:00pm 17.0 11.5 5.9 48 5.4 WSW 24 35 13 19 1029.5 1029.5 0.0
22/11:30am 15.9 11.0 5.2 49 5.1 W 20 33 11 18 1029.8 1029.8 0.0
22/11:00am 15.7 10.1 5.6 51 4.8 W 24 33 13 18 1029.9 1029.9 0.0
22/10:30am 15.4 10.0 6.4 55 4.3 WNW 24 33 13 18 1030.1 1030.1 0.0
22/10:00am 14.5 8.4 6.8 60 3.8 WNW 28 35 15 19 1030.2 1030.2 0.0
22/09:30am 13.9 8.6 6.7 62 3.5 WNW 24 33 13 18 1030.0 1030.0 0.0
22/09:00am 12.6 8.1 7.1 69 2.6 WNW 20 24 11 13 1029.8 1029.8 0.8
22/08:30am 10.3 6.0 7.0 80 1.6 WNW 19 24 10 13 1029.6 1029.6 0.8
22/08:00am 7.4 3.9 7.0 97 0.2 NW 15 19 8 10 1029.3 1029.3 0.8
22/07:30am 4.8 1.1 4.7 99 0.0 NW 13 17 7 9 1029.1 1029.0 0.8
22/07:00am 3.2 -0.8 3.1 99 0.0 NW 13 17 7 9 1028.6 1028.5 0.8
22/06:30am 2.5 -1.6 2.4 99 0.0 NW 13 15 7 8 1028.3 1028.2 0.8
22/06:00am 2.8 -1.2 2.7 99 0.0 NW 13 17 7 9 1028.1 1028.0 0.8
22/05:30am 2.4 -1.7 2.3 99 0.0 NNW 13 15 7 8 1027.8 1027.7 0.8
22/05:00am 2.7 -1.3 2.6 99 0.0 NW 13 17 7 9 1027.3 1027.2 0.8
22/04:30am 2.6 -1.5 2.5 99 0.0 NNW 13 17 7 9 1027.3 1027.2 0.8
22/04:00am 2.5 -1.6 2.4 99 0.0 NW 13 15 7 8 1027.0 1026.9 0.8
22/03:30am 2.6 -1.5 2.5 99 0.0 NW 13 15 7 8 1026.8 1026.7 0.8
22/03:00am 3.0 -0.6 2.9 99 0.0 NW 11 13 6 7 1026.8 1026.7 0.8
22/02:30am 3.0 -1.0 2.9 99 0.0 NW 13 13 7 7 1026.9 1026.8 0.8
22/02:00am 3.3 -0.3 3.2 99 0.0 NW 11 13 6 7 1027.3 1027.2 0.8
22/01:30am 3.7 0.2 3.6 99 0.0 NW 11 13 6 7 1027.2 1027.1 0.8
22/01:00am 3.7 -0.2 3.6 99 0.0 NNW 13 15 7 8 1027.2 1027.1 0.8
22/12:30am 3.9 0.3 3.2 95 0.3 NW 11 13 6 7 1027.2 1027.1 0.8
22/12:00am 6.4 3.7 5.7 95 0.3 WSW 9 11 5 6 1027.2 1027.1 0.8
 
Date/Time
CST
Temp
°C
App
Temp
°C
Dew
Point
°C
Rel
Hum
%
Delta-T
°C
Wind Press
QNH
hPa
Press
MSL
hPa
Rain since
9am
mm
Dir  Spd
km/h
Gust
km/h
Spd
kts
Gust
kts
21/11:30pm 4.9 2.1 3.2 89 0.7 W 7 9 4 5 1027.4 1027.3 0.8
21/11:00pm 7.5 4.1 6.1 91 0.6 SW 13 15 7 8 1027.3 1027.2 0.8
21/10:30pm 7.1 4.4 5.4 89 0.8 WSW 9 11 5 6 1027.5 1027.4 0.8
21/10:00pm 8.2 5.2 6.0 86 1.0 WSW 11 15 6 8 1027.5 1027.4 0.8
21/09:30pm 8.9 5.6 6.3 84 1.2 SW 13 15 7 8 1027.3 1027.2 0.8
21/09:00pm 9.2 5.9 6.3 82 1.3 SW 13 15 7 8 1027.3 1027.2 0.8
21/08:30pm 9.6 5.9 6.1 79 1.6 SSW 15 19 8 10 1027.1 1027.0 0.8
21/08:00pm 9.7 5.4 5.3 74 2.0 SW 17 26 9 14 1027.0 1026.9 0.8
21/07:30pm 10.6 7.1 5.6 71 2.3 SW 13 15 7 8 1026.7 1026.6 0.8
21/07:00pm 11.8 8.1 6.3 69 2.6 SW 15 19 8 10 1026.3 1026.2 0.8
21/06:30pm 12.8 7.8 6.4 65 3.0 SSW 22 28 12 15 1026.0 1025.9 0.8
21/06:00pm 13.7 8.1 5.6 58 3.8 SW 24 32 13 17 1025.7 1025.6 0.8
21/05:30pm 14.3 7.9 5.4 55 4.2 SSW 28 37 15 20 1025.4 1025.3 0.8
21/05:00pm 14.6 8.6 5.1 53 4.5 SW 26 35 14 19 1025.0 1024.9 0.8
21/04:30pm 14.9 8.7 4.3 49 4.9 SW 26 35 14 19 1024.8 1024.7 0.8
21/04:00pm 14.7 8.9 4.4 50 4.8 SW 24 33 13 18 1024.7 1024.6 0.8
21/03:30pm 15.6 9.1 4.9 49 5.0 SW 28 35 15 19 1024.5 1024.4 0.8
21/03:00pm 15.6 9.0 4.3 47 5.2 SW 28 46 15 25 1024.5 1024.4 0.8
21/02:58pm 15.3 8.7 4.1 47 5.2 SW 28 46 15 25 1024.5 1024.4 0.8
21/02:30pm 15.7 10.1 5.3 50 4.9 SW 24 35 13 19 1024.6 1024.5 0.8
21/02:00pm 15.3 9.6 5.0 50 4.9 SW 24 35 13 19 1024.8 1024.7 0.8
21/01:30pm 15.2 9.3 3.7 46 5.3 SW 24 37 13 20 1025.1 1025.0 0.8
21/01:00pm 14.2 8.3 3.7 49 4.8 WSW 24 32 13 17 1025.4 1025.3 0.8
21/12:30pm 13.9 7.2 5.8 58 3.8 WSW 30 41 16 22 1025.5 1025.4 0.8
21/12:00pm 13.8 9.3 7.1 64 3.3 WSW 20 32 11 17 1025.5 1025.4 0.8
21/11:30am 12.2 9.3 9.6 84 1.3 W 15 19 8 10 1025.7 1025.6 0.8
21/11:25am 11.9 9.4 9.8 87 1.1 W 13 19 7 10 1025.7 1025.6 0.8
21/11:05am 11.3 5.9 8.2 81 1.5 SW 26 39 14 21 1025.8 1025.7 0.4
21/11:00am 12.4 6.9 7.5 72 2.4 SW 26 39 14 21 1025.7 1025.6 0.0
21/10:30am 12.8 7.7 6.2 64 3.1 W 22 32 12 17 1025.7 1025.6 0.0
21/10:00am 12.6 7.3 6.6 67 2.9 W 24 37 13 20 1025.7 1025.6 0.0
21/09:30am 11.8 7.0 7.3 74 2.2 W 22 30 12 16 1025.7 1025.6 0.0
21/09:00am 10.4 6.2 8.3 87 1.0 W 20 28 11 15 1025.5 1025.4 1.2
21/08:30am 9.8 6.9 9.7 99 0.0 W 15 20 8 11 1025.2 1025.1 1.2
21/08:00am 5.6 2.5 5.5 99 0.0 W 11 13 6 7 1025.1 1025.0 1.2
21/07:30am 4.2 1.2 4.1 99 0.0 WNW 9 13 5 7 1024.8 1024.7 1.2
21/07:00am 4.1 0.7 4.0 99 0.0 WNW 11 15 6 8 1024.3 1024.2 1.2
21/06:30am 4.5 0.4 4.4 99 0.0 W 15 20 8 11 1023.9 1023.8 1.2
21/06:00am 4.0 0.2 3.9 99 0.0 WNW 13 13 7 7 1023.4 1023.3 1.2
21/05:30am 4.0 0.6 3.9 99 0.0 WNW 11 13 6 7 1023.1 1023.0 1.2
21/05:00am 4.0 0.2 3.9 99 0.0 W 13 15 7 8 1022.5 1022.5 1.2
21/04:30am 4.4 1.1 4.3 99 0.0 WNW 11 13 6 7 1022.4 1022.4 1.2
21/04:00am 5.4 1.5 5.3 99 0.0 WNW 15 19 8 10 1022.3 1022.3 1.2
21/03:30am 6.5 2.4 6.4 99 0.0 WNW 17 22 9 12 1022.2 1022.2 1.2
21/03:00am 5.7 2.2 5.6 99 0.0 W 13 17 7 9 1022.1 1022.1 1.2
21/02:30am 6.1 3.1 6.0 99 0.0 WNW 11 15 6 8 1022.3 1022.3 1.2
21/02:00am 6.3 2.2 6.2 99 0.0 WNW 17 20 9 11 1022.7 1022.7 1.2
21/01:30am 6.4 3.1 6.3 99 0.0 W 13 17 7 9 1023.1 1023.0 1.0
21/01:00am 6.6 4.1 6.5 99 0.0 W 9 11 5 6 1022.8 1022.8 1.0
21/12:30am 6.9 4.5 6.8 99 0.0 W 9 15 5 8 1023.1 1023.0 1.0
21/12:00am 6.1 2.7 6.0 99 0.0 W 13 20 7 11 1023.1 1023.0 1.0
 
Date/Time
CST
Temp
°C
App
Temp
°C
Dew
Point
°C
Rel
Hum
%
Delta-T
°C
Wind Press
QNH
hPa
Press
MSL
hPa
Rain since
9am
mm
Dir  Spd
km/h
Gust
km/h
Spd
kts
Gust
kts
20/11:30pm 5.2 1.6 5.1 99 0.0 WNW 13 19 7 10 1023.1 1023.0 1.0
20/11:00pm 5.9 3.7 5.5 97 0.2 WNW 6 9 3 5 1022.9 1022.9 1.0
20/10:30pm 7.2 3.6 6.8 97 0.2 W 15 17 8 9 1022.9 1022.9 1.0
20/10:00pm 8.4 5.5 8.1 98 0.1 WSW 13 19 7 10 1022.9 1022.9 1.0
20/09:30pm 7.2 5.0 6.3 94 0.4 WNW 7 15 4 8 1023.1 1023.0 1.0
20/09:00pm 7.1 4.5 5.9 92 0.5 WSW 9 17 5 9 1023.2 1023.1 0.8
20/08:30pm 6.8 3.9 4.6 86 1.0 W 9 11 5 6 1022.7 1022.7 0.8
20/08:00pm 8.3 5.2 5.6 83 1.2 WSW 11 15 6 8 1022.4 1022.4 0.8
20/07:30pm 8.0 4.8 4.9 81 1.4 WSW 11 13 6 7 1022.2 1022.2 0.8
20/07:00pm 9.1 4.1 4.7 74 2.0 WSW 20 26 11 14 1021.8 1021.8 0.8
20/06:43pm 8.9 2.5 5.1 77 1.7 WSW 28 48 15 26 1021.8 1021.8 0.8
20/06:30pm 9.7 3.4 5.7 76 1.8 WSW 28 41 15 22 1021.7 1021.7 0.8
20/06:00pm 10.6 5.2 6.4 75 2.0 SW 24 32 13 17 1021.0 1021.0 0.8
20/05:33pm 12.1 4.2 4.3 59 3.5 SW 35 59 19 32 1020.7 1020.7 0.6
20/05:30pm 12.4 4.3 3.4 54 4.0 SW 35 44 19 24 1020.6 1020.6 0.6
20/05:00pm 13.4 5.2 2.9 49 4.7 SW 35 46 19 25 1020.1 1020.1 0.6
20/04:30pm 13.1 5.0 3.2 51 4.4 SW 35 46 19 25 1019.7 1019.7 0.6
20/04:00pm 13.2 5.2 3.6 52 4.3 SW 35 46 19 25 1019.3 1019.3 0.6
20/03:36pm 12.8 3.6 3.7 54 4.1 SW 41 59 22 32 1019.2 1019.2 0.6
20/03:30pm 13.3 4.6 4.2 54 4.1 SW 39 54 21 29 1019.1 1019.1 0.6
20/03:14pm 13.6 6.1 4.5 54 4.2 SW 33 52 18 28 1018.9 1018.9 0.6
20/03:00pm 13.9 5.0 2.8 47 4.9 SW 39 50 21 27 1018.7 1018.7 0.6

Other formats

Comma delimited format used in spreadsheet applications
http://www.bom.gov.au/fwo/IDS60801/IDS60801.94651.axf

JavaScript Object Notation format (JSON) in row-major order
http://www.bom.gov.au/fwo/IDS60801/IDS60801.94651.json

Data quality

Most of these data are generated automatically and are frequently updated. Quality checks on data are not normally performed. It is possible for incorrect values to appear. Refer to information at About Latest Weather Observations and please check the disclaimer before using these data.